createdAt,value
2023-05-16T00:02:36.732Z,8.45
2023-05-16T00:05:38.557Z,8.35
2023-05-16T00:08:40.381Z,8.35
2023-05-16T00:11:41.827Z,8.39
2023-05-16T00:14:43.677Z,8.42
2023-05-16T00:17:45.224Z,8.40
2023-05-16T00:20:47.034Z,8.36
2023-05-16T00:23:48.602Z,8.29
2023-05-16T00:26:50.172Z,8.26
2023-05-16T00:29:51.777Z,8.19
2023-05-16T00:32:55.136Z,8.04
2023-05-16T00:35:56.754Z,8.01
2023-05-16T00:38:58.308Z,8.06
2023-05-16T00:42:00.080Z,8.14
2023-05-16T00:45:01.646Z,8.14
2023-05-16T00:48:03.470Z,8.11
2023-05-16T00:51:05.254Z,8.11
2023-05-16T00:54:07.260Z,8.11
2023-05-16T00:57:08.804Z,8.07
2023-05-16T01:00:10.960Z,8.02
2023-05-16T01:03:12.696Z,8.03
2023-05-16T01:06:14.345Z,8.01
2023-05-16T01:09:16.074Z,8.02
2023-05-16T01:12:26.591Z,8.12
2023-05-16T01:15:39.864Z,8.25
2023-05-16T01:18:50.653Z,8.26
2023-05-16T01:22:01.521Z,8.24
2023-05-16T01:25:17.940Z,8.25
2023-05-16T01:28:20.458Z,8.26
2023-05-16T01:31:23.339Z,8.26
2023-05-16T01:34:25.125Z,8.28
2023-05-16T01:37:35.908Z,8.27
2023-05-16T01:40:59.700Z,8.26
2023-05-16T01:44:08.090Z,8.21
2023-05-16T01:47:12.325Z,8.16
2023-05-16T01:50:15.516Z,8.10
2023-05-16T01:53:22.065Z,8.05
2023-05-16T01:56:24.328Z,8.05
2023-05-16T01:59:26.199Z,8.04
2023-05-16T02:02:29.447Z,7.99
2023-05-16T02:05:31.067Z,7.95
2023-05-16T02:08:32.730Z,7.90
2023-05-16T02:11:34.268Z,7.89
2023-05-16T02:14:35.830Z,7.87
2023-05-16T02:17:37.307Z,7.83
2023-05-16T02:20:38.999Z,7.80
2023-05-16T02:23:40.814Z,7.76
2023-05-16T02:26:42.491Z,7.75
2023-05-16T02:29:44.064Z,7.74
2023-05-16T02:32:45.980Z,7.71
2023-05-16T02:35:47.671Z,7.69
2023-05-16T02:38:49.117Z,7.68
2023-05-16T02:41:50.620Z,7.67
2023-05-16T02:44:52.052Z,7.65
2023-05-16T02:47:53.668Z,7.63
2023-05-16T02:50:55.270Z,7.64
2023-05-16T02:53:57.266Z,7.63
2023-05-16T02:56:58.989Z,7.61
2023-05-16T03:00:00.981Z,7.59
2023-05-16T03:03:02.881Z,7.58
2023-05-16T03:06:04.530Z,7.62
2023-05-16T03:09:06.229Z,7.63
2023-05-16T03:12:07.886Z,7.62
2023-05-16T03:15:10.000Z,7.62
2023-05-16T03:18:11.738Z,7.63
2023-05-16T03:21:13.444Z,7.61
2023-05-16T03:24:15.079Z,7.58
2023-05-16T03:27:16.851Z,7.57
2023-05-16T03:30:19.835Z,7.61
2023-05-16T03:33:21.705Z,7.68
2023-05-16T03:36:23.390Z,7.77
2023-05-16T03:39:25.144Z,7.89
2023-05-16T03:42:26.697Z,8.03
2023-05-16T03:45:30.157Z,8.19
2023-05-16T03:48:31.972Z,8.22
2023-05-16T03:51:33.556Z,8.17
2023-05-16T03:54:35.440Z,8.15
2023-05-16T03:57:38.248Z,8.27
2023-05-16T04:00:39.925Z,8.29
2023-05-16T04:03:41.665Z,8.41
2023-05-16T04:06:43.743Z,8.55
2023-05-16T04:09:45.485Z,8.69
2023-05-16T04:12:47.437Z,8.96
2023-05-16T04:15:49.043Z,9.31
2023-05-16T04:18:53.648Z,9.60
2023-05-16T04:21:55.296Z,9.73
2023-05-16T04:24:56.885Z,9.90
2023-05-16T04:27:58.606Z,10.18
2023-05-16T04:31:00.215Z,10.47
2023-05-16T04:34:02.015Z,10.68
2023-05-16T04:37:04.906Z,10.89
2023-05-16T04:40:07.362Z,11.18
2023-05-16T04:43:09.254Z,11.55
2023-05-16T04:46:10.940Z,11.71
2023-05-16T04:49:12.490Z,11.89
2023-05-16T04:52:17.264Z,12.20
2023-05-16T04:55:18.836Z,12.35
2023-05-16T04:58:20.896Z,12.39
2023-05-16T05:01:22.466Z,12.48
2023-05-16T05:04:24.790Z,12.59
2023-05-16T05:07:26.413Z,12.58
2023-05-16T05:10:28.428Z,12.66
2023-05-16T05:13:30.004Z,12.89
2023-05-16T05:16:31.844Z,13.16
2023-05-16T05:19:33.485Z,13.21
2023-05-16T05:22:35.087Z,13.34
2023-05-16T05:25:37.866Z,13.41
2023-05-16T05:28:40.900Z,13.47
2023-05-16T05:31:44.008Z,13.65
2023-05-16T05:34:45.699Z,13.76
2023-05-16T05:37:47.690Z,13.82
2023-05-16T05:40:49.789Z,13.75
2023-05-16T05:43:51.435Z,13.93
2023-05-16T05:46:52.995Z,14.19
2023-05-16T05:49:54.605Z,14.34
2023-05-16T05:52:56.262Z,14.43
2023-05-16T05:55:57.776Z,14.61
2023-05-16T05:58:59.338Z,14.84
2023-05-16T06:02:00.978Z,14.89
2023-05-16T06:05:02.789Z,14.78
2023-05-16T06:08:04.544Z,14.64
2023-05-16T06:11:06.386Z,14.60
2023-05-16T06:14:08.229Z,14.64
2023-05-16T06:17:09.899Z,14.81
2023-05-16T06:20:12.127Z,15.07
2023-05-16T06:23:13.816Z,15.47
2023-05-16T06:26:15.541Z,15.52
2023-05-16T06:29:17.154Z,15.57
2023-05-16T06:32:18.885Z,15.73
2023-05-16T06:35:20.453Z,15.98
2023-05-16T06:38:21.972Z,16.21
2023-05-16T06:41:23.637Z,16.58
2023-05-16T06:44:25.396Z,16.77
2023-05-16T06:47:27.029Z,16.88
2023-05-16T06:50:28.670Z,17.01
2023-05-16T06:53:30.305Z,17.11
2023-05-16T06:56:32.482Z,17.09
2023-05-16T06:59:34.985Z,17.34
2023-05-16T07:02:36.635Z,17.37
2023-05-16T07:05:38.524Z,17.42
2023-05-16T07:08:40.095Z,17.65
2023-05-16T07:11:41.705Z,17.86
2023-05-16T07:14:43.414Z,18.02
2023-05-16T07:17:45.093Z,18.16
2023-05-16T07:20:46.758Z,18.28
2023-05-16T07:23:48.463Z,18.41
2023-05-16T07:26:50.107Z,18.49
2023-05-16T07:29:51.915Z,18.67
2023-05-16T07:32:53.577Z,18.70
2023-05-16T07:36:12.200Z,18.78
2023-05-16T07:39:17.562Z,18.71
2023-05-16T07:42:19.169Z,18.41
2023-05-16T07:45:21.057Z,18.54
2023-05-16T07:48:22.848Z,18.91
2023-05-16T07:51:24.456Z,19.01
2023-05-16T07:54:26.041Z,18.92
2023-05-16T07:57:27.861Z,19.32
2023-05-16T08:00:29.445Z,19.64
2023-05-16T08:03:31.310Z,19.59
2023-05-16T08:06:33.206Z,19.73
2023-05-16T08:09:35.349Z,20.02
2023-05-16T08:12:36.980Z,20.62
2023-05-16T08:15:38.682Z,20.82
2023-05-16T08:18:40.451Z,20.76
2023-05-16T08:21:42.214Z,20.96
2023-05-16T08:24:43.863Z,20.98
2023-05-16T08:27:46.857Z,21.15
2023-05-16T08:30:48.511Z,21.47
2023-05-16T08:33:50.082Z,21.37
2023-05-16T08:36:51.675Z,21.20
2023-05-16T08:39:53.450Z,20.81
2023-05-16T08:42:55.202Z,20.54
2023-05-16T08:45:57.133Z,20.42
2023-05-16T08:49:00.536Z,20.28
2023-05-16T08:52:03.396Z,20.22
2023-05-16T08:55:10.728Z,20.33
2023-05-16T08:58:13.366Z,20.46
2023-05-16T09:01:15.930Z,20.38
2023-05-16T09:04:17.554Z,20.20
2023-05-16T09:07:19.193Z,20.32
2023-05-16T09:10:21.336Z,20.41
2023-05-16T09:13:26.872Z,20.65
2023-05-16T09:16:28.661Z,21.20
2023-05-16T09:19:38.694Z,21.67
2023-05-16T09:22:41.581Z,21.98
2023-05-16T09:25:44.104Z,21.93
2023-05-16T09:28:45.928Z,21.91
2023-05-16T09:31:49.696Z,21.99
2023-05-16T09:34:53.762Z,22.07
2023-05-16T09:37:55.538Z,22.53
2023-05-16T09:40:57.224Z,22.86
2023-05-16T09:43:58.806Z,23.12
2023-05-16T09:47:01.542Z,23.36
2023-05-16T09:50:03.169Z,23.52
2023-05-16T09:53:05.470Z,23.58
2023-05-16T09:56:14.483Z,23.88
2023-05-16T09:59:16.151Z,24.28
2023-05-16T10:02:18.130Z,24.30
2023-05-16T10:05:20.085Z,24.27
2023-05-16T10:08:24.102Z,24.20
2023-05-16T10:11:25.834Z,23.84
2023-05-16T10:14:27.508Z,23.67
2023-05-16T10:17:31.397Z,23.97
2023-05-16T10:20:33.098Z,24.19
2023-05-16T10:23:34.969Z,24.43
2023-05-16T10:26:36.689Z,24.73
2023-05-16T10:29:53.002Z,24.88
2023-05-16T10:32:56.804Z,24.84
2023-05-16T10:35:58.485Z,24.90
2023-05-16T10:39:00.598Z,24.75
2023-05-16T10:42:02.708Z,24.79
2023-05-16T10:45:18.528Z,24.60
2023-05-16T10:48:29.397Z,24.61
2023-05-16T10:51:38.298Z,24.67
2023-05-16T10:54:41.784Z,24.34
2023-05-16T10:57:44.677Z,24.25
2023-05-16T11:00:47.864Z,24.28
2023-05-16T11:03:59.066Z,24.20
2023-05-16T11:07:01.432Z,24.03
2023-05-16T11:10:15.957Z,23.93
2023-05-16T11:13:24.649Z,23.82
2023-05-16T11:16:30.397Z,23.79
2023-05-16T11:19:52.389Z,23.84
2023-05-16T11:23:18.156Z,23.75
2023-05-16T11:26:20.158Z,23.62
2023-05-16T11:29:22.393Z,23.55
2023-05-16T11:32:24.087Z,23.41
2023-05-16T11:35:25.716Z,23.18
2023-05-16T11:38:30.587Z,22.86
2023-05-16T11:41:32.333Z,22.54
2023-05-16T11:44:33.983Z,22.27
2023-05-16T11:47:40.037Z,21.99
2023-05-16T11:50:41.721Z,21.71
2023-05-16T11:53:43.352Z,21.47
2023-05-16T11:56:45.430Z,21.24
2023-05-16T11:59:47.019Z,21.00
2023-05-16T12:02:49.529Z,20.83
2023-05-16T12:05:55.363Z,20.72
2023-05-16T12:09:00.155Z,20.62
2023-05-16T12:12:05.288Z,20.48
2023-05-16T12:15:08.864Z,20.39
2023-05-16T12:18:11.235Z,20.34
2023-05-16T12:21:13.558Z,20.27
2023-05-16T12:24:15.690Z,19.99
2023-05-16T12:27:25.198Z,19.74
2023-05-16T12:30:28.440Z,19.37
2023-05-16T12:33:30.451Z,19.27
2023-05-16T12:36:34.296Z,19.20
2023-05-16T12:39:38.812Z,19.01
2023-05-16T12:42:40.468Z,18.82
2023-05-16T12:45:42.312Z,18.65
2023-05-16T12:48:43.996Z,18.61
2023-05-16T12:51:50.063Z,18.50
2023-05-16T12:54:51.631Z,18.40
2023-05-16T12:57:55.422Z,18.39
2023-05-16T13:00:57.151Z,18.29
2023-05-16T13:03:59.078Z,18.18
2023-05-16T13:07:00.852Z,18.20
2023-05-16T13:10:02.962Z,18.30
2023-05-16T13:13:04.514Z,18.36
2023-05-16T13:16:06.786Z,18.35
2023-05-16T13:19:08.556Z,18.35
2023-05-16T13:22:10.185Z,18.42
2023-05-16T13:25:12.116Z,18.48
2023-05-16T13:28:13.944Z,18.55
2023-05-16T13:31:15.529Z,18.61
2023-05-16T13:34:17.150Z,18.63
2023-05-16T13:37:19.238Z,18.67
2023-05-16T13:40:20.943Z,18.69
2023-05-16T13:43:22.723Z,18.69
2023-05-16T13:46:24.426Z,18.68
2023-05-16T13:49:26.285Z,18.66
2023-05-16T13:52:27.938Z,18.62
2023-05-16T13:55:29.820Z,18.56
2023-05-16T13:58:31.917Z,18.50
2023-05-16T14:01:33.625Z,18.42
2023-05-16T14:04:35.466Z,18.36
2023-05-16T14:07:37.098Z,18.32
2023-05-16T14:10:38.682Z,18.33
2023-05-16T14:13:40.332Z,18.28
2023-05-16T14:16:42.185Z,18.22
2023-05-16T14:19:44.001Z,18.30
2023-05-16T14:22:45.768Z,18.34
2023-05-16T14:25:47.417Z,18.22
2023-05-16T14:28:49.069Z,18.15
2023-05-16T14:31:50.732Z,18.13
2023-05-16T14:34:52.352Z,18.24
2023-05-16T14:37:54.304Z,18.34
2023-05-16T14:40:55.891Z,18.35
2023-05-16T14:43:57.510Z,18.37
2023-05-16T14:46:59.434Z,18.45
2023-05-16T14:50:01.053Z,18.48
2023-05-16T14:53:02.799Z,18.28
2023-05-16T14:56:04.777Z,18.28
2023-05-16T14:59:06.491Z,18.36
2023-05-16T15:02:08.179Z,18.36
2023-05-16T15:05:10.835Z,18.17
2023-05-16T15:08:12.623Z,18.10
2023-05-16T15:11:16.905Z,18.10
2023-05-16T15:14:18.621Z,18.05
2023-05-16T15:17:23.471Z,17.95
2023-05-16T15:20:25.262Z,17.67
2023-05-16T15:23:27.091Z,17.33
2023-05-16T15:26:29.554Z,16.99
2023-05-16T15:29:31.293Z,16.73
2023-05-16T15:32:32.908Z,16.53
2023-05-16T15:35:34.694Z,16.33
2023-05-16T15:38:36.387Z,16.10
2023-05-16T15:44:45.177Z,15.63
2023-05-16T15:47:47.130Z,15.45
2023-05-16T15:50:48.776Z,15.26
2023-05-16T15:53:50.550Z,15.09
2023-05-16T15:56:52.276Z,14.90
2023-05-16T15:59:53.936Z,14.71
2023-05-16T16:02:55.595Z,14.51
2023-05-16T16:05:57.285Z,14.33
2023-05-16T16:08:58.918Z,14.19
2023-05-16T16:12:00.490Z,14.07
2023-05-16T16:15:02.248Z,13.98
2023-05-16T16:18:04.152Z,13.92
2023-05-16T16:21:05.946Z,13.87
2023-05-16T16:24:07.609Z,13.80
2023-05-16T16:27:09.295Z,13.72
2023-05-16T16:30:11.715Z,13.65
2023-05-16T16:33:13.396Z,13.61
2023-05-16T16:36:16.328Z,13.58
2023-05-16T16:39:18.112Z,13.54
2023-05-16T16:42:19.805Z,13.50
2023-05-16T16:45:22.601Z,13.47
2023-05-16T16:48:24.367Z,13.47
2023-05-16T16:51:28.575Z,13.47
2023-05-16T16:54:30.288Z,13.48
2023-05-16T16:57:31.941Z,13.52
2023-05-16T17:00:33.557Z,13.57
2023-05-16T17:03:35.225Z,13.60
2023-05-16T17:06:36.964Z,13.62
2023-05-16T17:09:38.594Z,13.63
2023-05-16T17:12:40.393Z,13.63
2023-05-16T17:15:42.085Z,13.63
2023-05-16T17:18:43.873Z,13.62
2023-05-16T17:21:45.699Z,13.61
2023-05-16T17:24:47.461Z,13.58
2023-05-16T17:27:49.089Z,13.52
2023-05-16T17:30:50.766Z,13.41
2023-05-16T17:33:52.415Z,13.16
2023-05-16T17:36:54.249Z,12.89
2023-05-16T17:39:56.027Z,12.80
2023-05-16T17:42:57.902Z,12.78
2023-05-16T17:45:59.488Z,12.72
2023-05-16T17:49:01.279Z,12.68
2023-05-16T17:52:03.285Z,12.65
2023-05-16T17:55:06.642Z,12.55
2023-05-16T17:58:08.380Z,12.46
2023-05-16T18:01:10.308Z,12.41
2023-05-16T18:04:12.268Z,12.40
2023-05-16T18:07:14.092Z,12.40
2023-05-16T18:10:15.815Z,12.37
2023-05-16T18:13:17.609Z,12.32
2023-05-16T18:16:19.434Z,12.31
2023-05-16T18:19:21.132Z,12.31
2023-05-16T18:22:22.904Z,12.31
2023-05-16T18:25:24.517Z,12.29
2023-05-16T18:28:26.465Z,12.29
2023-05-16T18:31:28.161Z,12.27
2023-05-16T18:34:29.877Z,12.27
2023-05-16T18:37:31.622Z,12.25
2023-05-16T18:40:33.435Z,12.20
2023-05-16T18:43:35.102Z,12.13
2023-05-16T18:46:38.008Z,12.16
2023-05-16T18:49:39.666Z,12.19
2023-05-16T18:52:41.373Z,12.20
2023-05-16T18:55:42.939Z,12.20
2023-05-16T18:58:44.710Z,12.20
2023-05-16T19:01:46.300Z,12.20
2023-05-16T19:04:48.100Z,12.20
2023-05-16T19:07:49.991Z,12.21
2023-05-16T19:10:51.917Z,12.25
2023-05-16T19:13:53.616Z,12.18
2023-05-16T19:16:56.588Z,12.16
2023-05-16T19:19:58.348Z,12.17
2023-05-16T19:23:00.353Z,12.20
2023-05-16T19:26:02.119Z,12.21
2023-05-16T19:29:03.917Z,12.19
2023-05-16T19:32:06.078Z,12.21
2023-05-16T19:35:08.059Z,12.22
2023-05-16T19:38:09.707Z,12.24
2023-05-16T19:41:11.311Z,12.26
2023-05-16T19:44:12.946Z,12.25
2023-05-16T19:47:14.661Z,12.20
2023-05-16T19:50:16.453Z,12.22
2023-05-16T19:53:22.043Z,12.25
2023-05-16T19:56:24.162Z,12.25
2023-05-16T19:59:25.895Z,12.26
2023-05-16T20:02:27.598Z,12.25
2023-05-16T20:05:29.682Z,12.23
2023-05-16T20:08:32.086Z,12.23
2023-05-16T20:11:33.890Z,12.22
2023-05-16T20:14:35.690Z,12.20
2023-05-16T20:17:41.079Z,12.16
2023-05-16T20:20:42.824Z,12.21
2023-05-16T20:23:45.249Z,12.15
2023-05-16T20:26:47.266Z,12.13
2023-05-16T20:29:49.085Z,12.14
2023-05-16T20:32:50.779Z,12.14
2023-05-16T20:35:52.573Z,12.15
2023-05-16T20:38:54.171Z,12.16
2023-05-16T20:41:55.772Z,12.17
2023-05-16T20:44:57.338Z,12.23
2023-05-16T20:47:59.124Z,12.27
2023-05-16T20:51:00.806Z,12.30
2023-05-16T20:54:02.602Z,12.33
2023-05-16T20:57:04.699Z,12.35
2023-05-16T21:00:07.039Z,12.37
2023-05-16T21:03:08.956Z,12.35
2023-05-16T21:06:10.717Z,12.34
2023-05-16T21:09:12.336Z,12.33
2023-05-16T21:12:13.973Z,12.32
2023-05-16T21:15:15.690Z,12.31
2023-05-16T21:18:17.562Z,12.30
2023-05-16T21:21:19.277Z,12.28
2023-05-16T21:24:20.978Z,12.27
2023-05-16T21:27:22.549Z,12.25
2023-05-16T21:30:24.168Z,12.22
2023-05-16T21:33:25.883Z,12.20
2023-05-16T21:36:27.612Z,12.18
2023-05-16T21:39:29.233Z,12.17
2023-05-16T21:42:30.865Z,12.16
2023-05-16T21:45:32.504Z,12.16
2023-05-16T21:48:34.198Z,12.16
2023-05-16T21:51:36.370Z,12.16
2023-05-16T21:54:37.929Z,12.16
2023-05-16T21:57:39.861Z,12.18
2023-05-16T22:00:41.495Z,12.18
2023-05-16T22:03:43.491Z,12.19
2023-05-16T22:06:45.400Z,12.20
2023-05-16T22:09:47.312Z,12.19
2023-05-16T22:12:48.977Z,12.19
2023-05-16T22:16:03.480Z,12.18
2023-05-16T22:19:06.620Z,12.18
2023-05-16T22:22:09.019Z,12.16
2023-05-16T22:25:10.653Z,12.14
2023-05-16T22:28:12.266Z,12.13
2023-05-16T22:31:13.971Z,12.13
2023-05-16T22:34:15.610Z,12.12
2023-05-16T22:37:17.279Z,12.11
2023-05-16T22:40:18.911Z,12.11
2023-05-16T22:43:23.596Z,12.11
2023-05-16T22:46:25.203Z,12.13
2023-05-16T22:49:26.931Z,12.14
2023-05-16T22:52:28.533Z,12.15
2023-05-16T22:55:30.400Z,12.16
2023-05-16T22:58:32.392Z,12.16
2023-05-16T23:01:34.836Z,12.17
2023-05-16T23:04:36.706Z,12.18
2023-05-16T23:07:38.502Z,12.18
2023-05-16T23:10:40.272Z,12.18
2023-05-16T23:13:42.049Z,12.18
2023-05-16T23:16:43.709Z,12.19
2023-05-16T23:19:45.603Z,12.20
2023-05-16T23:22:47.248Z,12.22
2023-05-16T23:25:48.857Z,12.22
2023-05-16T23:28:50.448Z,12.24
2023-05-16T23:31:52.028Z,12.25
2023-05-16T23:34:53.810Z,12.25
2023-05-16T23:37:55.608Z,12.26
2023-05-16T23:40:57.472Z,12.26
2023-05-16T23:43:59.209Z,12.25
2023-05-16T23:47:01.043Z,12.24
2023-05-16T23:50:03.148Z,12.22
2023-05-16T23:53:04.776Z,12.21
2023-05-16T23:56:06.408Z,12.20
2023-05-16T23:59:08.391Z,12.19
